^^
Meteo Knjazevac Station Historical Data
Daily Summary for January 19, 2021 Units:  Both    English   Metric
Daily Weekly Monthly Yearly Custom
  High: Low: Average:
Temperature: 76.8 °F /  24.9 °C 54.5 °F /  12.5 °C 64.8 °F /  18.2 °C
Dew Point: 60.3 °F /  15.7 °C 51.2 °F /  10.7 °C 56 °F /  13.3 °C
Humidity: 93% 47% 75%
Wind Speed: 9mph /  14.5km/h - 3mph /  4.8km/h
Wind Gust: 15mph /  24.1km/h - -
Wind- - SSE
Pressure: 30.06 in /  1017.8 hPa 29.96 in /  1014.4 hPa -
Precipitation: 0.14 in /  3.56 mm    
Historical Graphs
 
 
Tabular Data for January 19, 2021
Time Temperature Dew Point Pressure Wind Wind Speed Wind Gust Humidity Rainfall Rate (Hourly) solar Conditions
00:00 54.9 °F /  12.7 °C 51.4 °F /  10.8 °C 30.06in /  1017.8hPa Calm   2mph /  3.2km/h 88% 0.00in /  0mm 0 W/m2
00:10 54.7 °F /  12.6 °C 51.2 °F /  10.7 °C 30.06in /  1017.8hPa Calm   1mph /  1.6km/h 88% 0.00in /  0mm 0 W/m2
00:20 54.7 °F /  12.6 °C 51.5 °F /  10.8 °C 30.06in /  1017.8hPa Calm   2mph /  3.2km/h 89% 0.00in /  0mm 0 W/m2
00:30 54.7 °F /  12.6 °C 51.5 °F /  10.8 °C 30.06in /  1017.8hPa Calm   2mph /  3.2km/h 89% 0.00in /  0mm 0 W/m2
00:40 54.5 °F /  12.5 °C 51.3 °F /  10.7 °C 30.06in /  1017.8hPa Calm   3mph /  4.8km/h 89% 0.00in /  0mm 0 W/m2
00:50 54.7 °F /  12.6 °C 51.8 °F /  11 °C 30.06in /  1017.8hPa NE 1mph /  1.6km/h 5mph /  8km/h 90% 0.00in /  0mm 0 W/m2
01:00 55 °F /  12.8 °C 52.2 °F /  11.2 °C 30.06in /  1017.8hPa ENE 3mph /  4.8km/h 5mph /  8km/h 90% 0.00in /  0mm 0 W/m2
01:10 55 °F /  12.8 °C 51.9 °F /  11.1 °C 30.06in /  1017.8hPa ENE 1mph /  1.6km/h 4mph /  6.4km/h 89% 0.00in /  0mm 0 W/m2
01:20 54.9 °F /  12.7 °C 51.7 °F /  10.9 °C 30.06in /  1017.8hPa Calm   5mph /  8km/h 89% 0.00in /  0mm 0 W/m2
01:30 55.2 °F /  12.9 °C 52.3 °F /  11.3 °C 30.06in /  1017.8hPa East 2mph /  3.2km/h 6mph /  9.7km/h 90% 0.00in /  0mm 0 W/m2
01:40 55.4 °F /  13 °C 52.5 °F /  11.4 °C 30.06in /  1017.8hPa ESE 3mph /  4.8km/h 7mph /  11.3km/h 90% 0.00in /  0mm 0 W/m2
01:50 55.8 °F /  13.2 °C 52.6 °F /  11.4 °C 30.06in /  1017.8hPa East 2mph /  3.2km/h 5mph /  8km/h 89% 0.00in /  0mm 0 W/m2
02:00 56.1 °F /  13.4 °C 52.9 °F /  11.6 °C 30.06in /  1017.8hPa ESE 2mph /  3.2km/h 8mph /  12.9km/h 89% 0.00in /  0mm 0 W/m2
02:10 56.1 °F /  13.4 °C 52.9 °F /  11.6 °C 30.06in /  1017.8hPa Calm   3mph /  4.8km/h 89% 0.00in /  0mm 0 W/m2
02:20 56.3 °F /  13.5 °C 53.1 °F /  11.7 °C 30.06in /  1017.8hPa NE 3mph /  4.8km/h 5mph /  8km/h 89% 0.00in /  0mm 0 W/m2
02:30 56.3 °F /  13.5 °C 53.1 °F /  11.7 °C 30.06in /  1017.8hPa NE 1mph /  1.6km/h 5mph /  8km/h 89% 0.00in /  0mm 0 W/m2
02:40 56.5 °F /  13.6 °C 53.3 °F /  11.8 °C 30.06in /  1017.8hPa ENE 1mph /  1.6km/h 3mph /  4.8km/h 89% 0.00in /  0mm 0 W/m2
02:50 56.7 °F /  13.7 °C 53.5 °F /  11.9 °C 30.06in /  1017.8hPa Calm   4mph /  6.4km/h 89% 0.00in /  0mm 0 W/m2
03:00 56.7 °F /  13.7 °C 53.5 °F /  11.9 °C 30.05in /  1017.5hPa Calm   5mph /  8km/h 89% 0.00in /  0mm 0 W/m2
03:10 56.8 °F /  13.8 °C 53.6 °F /  12 °C 30.06in /  1017.8hPa NNE 2mph /  3.2km/h 3mph /  4.8km/h 89% 0.00in /  0mm 0 W/m2
03:20 56.8 °F /  13.8 °C 53.6 °F /  12 °C 30.06in /  1017.8hPa NE 1mph /  1.6km/h 5mph /  8km/h 89% 0.00in /  0mm 0 W/m2
03:30 57 °F /  13.9 °C 53.8 °F /  12.1 °C 30.06in /  1017.8hPa ENE 2mph /  3.2km/h 4mph /  6.4km/h 89% 0.00in /  0mm 0 W/m2
03:40 57.2 °F /  14 °C 54 °F /  12.2 °C 30.06in /  1017.8hPa ENE 2mph /  3.2km/h 4mph /  6.4km/h 89% 0.00in /  0mm 0 W/m2
03:50 57 °F /  13.9 °C 53.5 °F /  11.9 °C 30.05in /  1017.5hPa Calm   4mph /  6.4km/h 88% 0.00in /  0mm 0 W/m2
04:00 56.8 °F /  13.8 °C 53.6 °F /  12 °C 30.05in /  1017.5hPa Calm   1mph /  1.6km/h 89% 0.00in /  0mm 0 W/m2
04:10 56.8 °F /  13.8 °C 53.6 °F /  12 °C 30.04in /  1017.2hPa SE 2mph /  3.2km/h 6mph /  9.7km/h 89% 0.00in /  0mm 0 W/m2
04:20 57 °F /  13.9 °C 54.1 °F /  12.3 °C 30.05in /  1017.5hPa East 2mph /  3.2km/h 6mph /  9.7km/h 90% 0.00in /  0mm 0 W/m2
04:30 57.2 °F /  14 °C 54.3 °F /  12.4 °C 30.05in /  1017.5hPa Calm   6mph /  9.7km/h 90% 0.00in /  0mm 0 W/m2
04:40 57.2 °F /  14 °C 54.3 °F /  12.4 °C 30.05in /  1017.5hPa ENE 2mph /  3.2km/h 4mph /  6.4km/h 90% 0.00in /  0mm 0 W/m2
04:50 57.2 °F /  14 °C 54.3 °F /  12.4 °C 30.05in /  1017.5hPa East 2mph /  3.2km/h 5mph /  8km/h 90% 0.00in /  0mm 0 W/m2
05:00 57.2 °F /  14 °C 54.3 °F /  12.4 °C 30.05in /  1017.5hPa ESE 2mph /  3.2km/h 6mph /  9.7km/h 90% 0.00in /  0mm 0 W/m2
05:10 57.4 °F /  14.1 °C 54.5 °F /  12.5 °C 30.05in /  1017.5hPa SE 2mph /  3.2km/h 6mph /  9.7km/h 90% 0.00in /  0mm 0 W/m2
05:20 57.4 °F /  14.1 °C 54.5 °F /  12.5 °C 30.04in /  1017.2hPa SSE 1mph /  1.6km/h 6mph /  9.7km/h 90% 0.00in /  0mm 0 W/m2
05:30 57.4 °F /  14.1 °C 54.5 °F /  12.5 °C 30.04in /  1017.2hPa Calm   5mph /  8km/h 90% 0.00in /  0mm 0 W/m2
05:40 57.4 °F /  14.1 °C 54.5 °F /  12.5 °C 30.04in /  1017.2hPa West 1mph /  1.6km/h 3mph /  4.8km/h 90% 0.00in /  0mm 0 W/m2
05:50 57.4 °F /  14.1 °C 54.5 °F /  12.5 °C 30.04in /  1017.2hPa SE 1mph /  1.6km/h 6mph /  9.7km/h 90% 0.00in /  0mm 0 W/m2
06:00 57.4 °F /  14.1 °C 54.8 °F /  12.7 °C 30.04in /  1017.2hPa NW 1mph /  1.6km/h 4mph /  6.4km/h 91% 0.00in /  0mm 0 W/m2
06:10 57.4 °F /  14.1 °C 54.8 °F /  12.7 °C 30.04in /  1017.2hPa East 2mph /  3.2km/h 3mph /  4.8km/h 91% 0.00in /  0mm 0 W/m2
06:20 57.4 °F /  14.1 °C 54.8 °F /  12.7 °C 30.04in /  1017.2hPa ESE 1mph /  1.6km/h 5mph /  8km/h 91% 0.00in /  0mm 2 W/m2
06:30 57.4 °F /  14.1 °C 54.8 °F /  12.7 °C 30.05in /  1017.5hPa West 2mph /  3.2km/h 3mph /  4.8km/h 91% 0.00in /  0mm 4 W/m2
06:40 57.2 °F /  14 °C 54.6 °F /  12.6 °C 30.04in /  1017.2hPa Calm   3mph /  4.8km/h 91% 0.00in /  0mm 14 W/m2
06:50 57.2 °F /  14 °C 54.6 °F /  12.6 °C 30.04in /  1017.2hPa North 1mph /  1.6km/h 2mph /  3.2km/h 91% 0.00in /  0mm 9 W/m2
07:00 57.4 °F /  14.1 °C 55.4 °F /  13 °C 30.05in /  1017.5hPa SE 1mph /  1.6km/h 3mph /  4.8km/h 93% 0.00in /  0mm 17 W/m2
07:10 57.4 °F /  14.1 °C 54.8 °F /  12.7 °C 30.05in /  1017.5hPa Calm   2mph /  3.2km/h 91% 0.00in /  0mm 28 W/m2
07:20 57.4 °F /  14.1 °C 55.4 °F /  13 °C 30.05in /  1017.5hPa Calm   2mph /  3.2km/h 93% 0.00in /  0mm 40 W/m2
07:30 57.6 °F /  14.2 °C 55 °F /  12.8 °C 30.06in /  1017.8hPa NE 1mph /  1.6km/h 4mph /  6.4km/h 91% 0.00in /  0mm 50 W/m2
07:40 57.9 °F /  14.4 °C 55.3 °F /  12.9 °C 30.05in /  1017.5hPa Calm   3mph /  4.8km/h 91% 0.00in /  0mm 47 W/m2
07:50 57.9 °F /  14.4 °C 55.3 °F /  12.9 °C 30.05in /  1017.5hPa Calm   5mph /  8km/h 91% 0.00in /  0mm 66 W/m2
08:00 58.1 °F /  14.5 °C 55.5 °F /  13.1 °C 30.05in /  1017.5hPa Calm   2mph /  3.2km/h 91% 0.00in /  0mm 77 W/m2
08:10 58.3 °F /  14.6 °C 55.7 °F /  13.2 °C 30.05in /  1017.5hPa ENE 1mph /  1.6km/h 3mph /  4.8km/h 91% 0.00in /  0mm 61 W/m2
08:20 58.5 °F /  14.7 °C 55.8 °F /  13.2 °C 30.06in /  1017.8hPa SSE 1mph /  1.6km/h 3mph /  4.8km/h 91% 0.00in /  0mm 39 W/m2
08:30 58.6 °F /  14.8 °C 55.7 °F /  13.2 °C 30.05in /  1017.5hPa SSE 2mph /  3.2km/h 6mph /  9.7km/h 90% 0.00in /  0mm 72 W/m2
08:40 58.8 °F /  14.9 °C 55.9 °F /  13.3 °C 30.06in /  1017.8hPa SE 2mph /  3.2km/h 5mph /  8km/h 90% 0.00in /  0mm 88 W/m2
08:50 59.2 °F /  15.1 °C 55.9 °F /  13.3 °C 30.06in /  1017.8hPa ESE 2mph /  3.2km/h 6mph /  9.7km/h 89% 0.00in /  0mm 145 W/m2
09:00 59.7 °F /  15.4 °C 56.5 °F /  13.6 °C 30.06in /  1017.8hPa SE 2mph /  3.2km/h 7mph /  11.3km/h 89% 0.00in /  0mm 174 W/m2
09:10 60.3 °F /  15.7 °C 56.7 °F /  13.7 °C 30.06in /  1017.8hPa SE 3mph /  4.8km/h 8mph /  12.9km/h 88% 0.00in /  0mm 162 W/m2
09:20 60.6 °F /  15.9 °C 56.4 °F /  13.6 °C 30.05in /  1017.5hPa SE 5mph /  8km/h 7mph /  11.3km/h 86% 0.00in /  0mm 251 W/m2
09:30 61.5 °F /  16.4 °C 57 °F /  13.9 °C 30.06in /  1017.8hPa SE 3mph /  4.8km/h 10mph /  16.1km/h 85% 0.00in /  0mm 515 W/m2
09:40 62.4 °F /  16.9 °C 57.2 °F /  14 °C 30.05in /  1017.5hPa SE 6mph /  9.7km/h 10mph /  16.1km/h 83% 0.00in /  0mm 312 W/m2
09:50 63.1 °F /  17.3 °C 57.2 °F /  14 °C 30.06in /  1017.8hPa SE 3mph /  4.8km/h 9mph /  14.5km/h 81% 0.00in /  0mm 236 W/m2
10:00 63.3 °F /  17.4 °C 57.4 °F /  14.1 °C 30.06in /  1017.8hPa SE 3mph /  4.8km/h 8mph /  12.9km/h 81% 0.00in /  0mm 354 W/m2
10:10 63.9 °F /  17.7 °C 57.6 °F /  14.2 °C 30.06in /  1017.8hPa SE 2mph /  3.2km/h 8mph /  12.9km/h 80% 0.00in /  0mm 366 W/m2
10:20 64.8 °F /  18.2 °C 58.1 °F /  14.5 °C 30.06in /  1017.8hPa SE 5mph /  8km/h 8mph /  12.9km/h 79% 0.00in /  0mm 497 W/m2
10:30 65.1 °F /  18.4 °C 58.1 °F /  14.5 °C 30.06in /  1017.8hPa SSE 2mph /  3.2km/h 8mph /  12.9km/h 78% 0.00in /  0mm 273 W/m2
10:40 65.5 °F /  18.6 °C 58.1 °F /  14.5 °C 30.06in /  1017.8hPa SE 3mph /  4.8km/h 7mph /  11.3km/h 77% 0.00in /  0mm 256 W/m2
10:50 66.2 °F /  19 °C 58.8 °F /  14.9 °C 30.06in /  1017.8hPa SSW 3mph /  4.8km/h 6mph /  9.7km/h 77% 0.00in /  0mm 675 W/m2
11:00 67.8 °F /  19.9 °C 58.5 °F /  14.7 °C 30.06in /  1017.8hPa SW 5mph /  8km/h 12mph /  19.3km/h 72% 0.00in /  0mm 689 W/m2
11:10 69.3 °F /  20.7 °C 58.7 °F /  14.8 °C 30.06in /  1017.8hPa SSW 7mph /  11.3km/h 14mph /  22.5km/h 69% 0.00in /  0mm 393 W/m2
11:20 69.1 °F /  20.6 °C 58.1 °F /  14.5 °C 30.05in /  1017.5hPa SW 7mph /  11.3km/h 12mph /  19.3km/h 68% 0.00in /  0mm 341 W/m2
11:30 69.1 °F /  20.6 °C 58.1 °F /  14.5 °C 30.05in /  1017.5hPa SW 6mph /  9.7km/h 11mph /  17.7km/h 68% 0.00in /  0mm 279 W/m2
11:40 69.4 °F /  20.8 °C 58.4 °F /  14.7 °C 30.05in /  1017.5hPa SW 6mph /  9.7km/h 9mph /  14.5km/h 68% 0.00in /  0mm 411 W/m2
11:50 70 °F /  21.1 °C 59.3 °F /  15.2 °C 30.04in /  1017.2hPa South 7mph /  11.3km/h 12mph /  19.3km/h 69% 0.00in /  0mm 498 W/m2
12:00 70.7 °F /  21.5 °C 59.2 °F /  15.1 °C 30.04in /  1017.2hPa South 6mph /  9.7km/h 9mph /  14.5km/h 67% 0.00in /  0mm 443 W/m2
12:10 70.7 °F /  21.5 °C 59.6 °F /  15.3 °C 30.04in /  1017.2hPa South 5mph /  8km/h 12mph /  19.3km/h 68% 0.00in /  0mm 743 W/m2
12:20 71.6 °F /  22 °C 60.1 °F /  15.6 °C 30.04in /  1017.2hPa South 5mph /  8km/h 11mph /  17.7km/h 67% 0.00in /  0mm 745 W/m2
12:30 72.1 °F /  22.3 °C 59.7 °F /  15.4 °C 30.03in /  1016.8hPa South 3mph /  4.8km/h 9mph /  14.5km/h 65% 0.00in /  0mm 344 W/m2
12:40 72.1 °F /  22.3 °C 59.3 °F /  15.2 °C 30.03in /  1016.8hPa SSE 5mph /  8km/h 8mph /  12.9km/h 64% 0.00in /  0mm 374 W/m2
12:50 72 °F /  22.2 °C 58.7 °F /  14.8 °C 30.02in /  1016.5hPa SE 6mph /  9.7km/h 10mph /  16.1km/h 63% 0.00in /  0mm 414 W/m2
13:00 72.3 °F /  22.4 °C 59.5 °F /  15.3 °C 30.02in /  1016.5hPa SSE 3mph /  4.8km/h 9mph /  14.5km/h 64% 0.00in /  0mm 516 W/m2
13:10 72.7 °F /  22.6 °C 58.9 °F /  14.9 °C 30.02in /  1016.5hPa South 2mph /  3.2km/h 6mph /  9.7km/h 62% 0.00in /  0mm 329 W/m2
13:20 73.1 °F /  22.8 °C 59.3 °F /  15.2 °C 30.02in /  1016.5hPa SSW 5mph /  8km/h 9mph /  14.5km/h 62% 0.00in /  0mm 718 W/m2
13:30 74.1 °F /  23.4 °C 60.3 °F /  15.7 °C 30.01in /  1016.1hPa SSW 5mph /  8km/h 9mph /  14.5km/h 62% 0.00in /  0mm 708 W/m2
13:40 75 °F /  23.9 °C 59.7 °F /  15.4 °C 30.01in /  1016.1hPa SSE 5mph /  8km/h 10mph /  16.1km/h 59% 0.00in /  0mm 696 W/m2
13:50 75.7 °F /  24.3 °C 59.9 °F /  15.5 °C 30.00in /  1015.8hPa SSW 3mph /  4.8km/h 8mph /  12.9km/h 58% 0.00in /  0mm 683 W/m2
14:00 76.3 °F /  24.6 °C 58.9 °F /  14.9 °C 30.00in /  1015.8hPa SW 8mph /  12.9km/h 13mph /  20.9km/h 55% 0.00in /  0mm 584 W/m2
14:10 75.6 °F /  24.2 °C 58.3 °F /  14.6 °C 30.00in /  1015.8hPa SW 6mph /  9.7km/h 12mph /  19.3km/h 55% 0.00in /  0mm 653 W/m2
14:20 76.1 °F /  24.5 °C 58.8 °F /  14.9 °C 30.00in /  1015.8hPa SSW 5mph /  8km/h 12mph /  19.3km/h 55% 0.00in /  0mm 635 W/m2
14:30 76.8 °F /  24.9 °C 58.9 °F /  14.9 °C 29.99in /  1015.5hPa SW 8mph /  12.9km/h 14mph /  22.5km/h 54% 0.00in /  0mm 616 W/m2
14:40 75.9 °F /  24.4 °C 58.1 °F /  14.5 °C 29.99in /  1015.5hPa SW 8mph /  12.9km/h 15mph /  24.1km/h 54% 0.00in /  0mm 250 W/m2
14:50 75.2 °F /  24 °C 57.9 °F /  14.4 °C 29.99in /  1015.5hPa SW 9mph /  14.5km/h 14mph /  22.5km/h 55% 0.00in /  0mm 245 W/m2
15:00 74.7 °F /  23.7 °C 58.4 °F /  14.7 °C 29.99in /  1015.5hPa SW 7mph /  11.3km/h 15mph /  24.1km/h 57% 0.00in /  0mm 243 W/m2
15:10 74.3 °F /  23.5 °C 57.1 °F /  13.9 °C 29.99in /  1015.5hPa SW 8mph /  12.9km/h 14mph /  22.5km/h 55% 0.00in /  0mm 211 W/m2
15:20 74.1 °F /  23.4 °C 57.9 °F /  14.4 °C 29.99in /  1015.5hPa SW 7mph /  11.3km/h 13mph /  20.9km/h 57% 0.00in /  0mm 247 W/m2
15:30 74.1 °F /  23.4 °C 56.9 °F /  13.8 °C 29.99in /  1015.5hPa SW 7mph /  11.3km/h 12mph /  19.3km/h 55% 0.00in /  0mm 235 W/m2
15:40 74.1 °F /  23.4 °C 56.4 °F /  13.6 °C 29.99in /  1015.5hPa SW 7mph /  11.3km/h 13mph /  20.9km/h 54% 0.00in /  0mm 327 W/m2
15:50 74.7 °F /  23.7 °C 55.9 °F /  13.3 °C 29.98in /  1015.1hPa SW 7mph /  11.3km/h 13mph /  20.9km/h 52% 0.00in /  0mm 202 W/m2
16:00 75.2 °F /  24 °C 55.3 °F /  12.9 °C 29.98in /  1015.1hPa SW 8mph /  12.9km/h 14mph /  22.5km/h 50% 0.00in /  0mm 396 W/m2
16:10 76 °F /  24.4 °C 55.4 °F /  13 °C 29.97in /  1014.8hPa SW 8mph /  12.9km/h 13mph /  20.9km/h 49% 0.00in /  0mm 368 W/m2
16:20 76.1 °F /  24.5 °C 55 °F /  12.8 °C 29.97in /  1014.8hPa SW 6mph /  9.7km/h 12mph /  19.3km/h 48% 0.00in /  0mm 338 W/m2
16:30 76.5 °F /  24.7 °C 55.9 °F /  13.3 °C 29.97in /  1014.8hPa SW 7mph /  11.3km/h 12mph /  19.3km/h 49% 0.00in /  0mm 309 W/m2
16:40 76.6 °F /  24.8 °C 55.5 °F /  13.1 °C 29.97in /  1014.8hPa SW 5mph /  8km/h 8mph /  12.9km/h 48% 0.00in /  0mm 279 W/m2
16:50 76.6 °F /  24.8 °C 54.9 °F /  12.7 °C 29.97in /  1014.8hPa SW 6mph /  9.7km/h 9mph /  14.5km/h 47% 0.00in /  0mm 250 W/m2
17:00 76.6 °F /  24.8 °C 55.5 °F /  13.1 °C 29.97in /  1014.8hPa SW 5mph /  8km/h 9mph /  14.5km/h 48% 0.00in /  0mm 220 W/m2
17:10 76.5 °F /  24.7 °C 55.3 °F /  12.9 °C 29.97in /  1014.8hPa SW 5mph /  8km/h 9mph /  14.5km/h 48% 0.00in /  0mm 190 W/m2
17:20 76.3 °F /  24.6 °C 55.7 °F /  13.2 °C 29.97in /  1014.8hPa SSW 5mph /  8km/h 8mph /  12.9km/h 49% 0.00in /  0mm 161 W/m2
17:30 75.9 °F /  24.4 °C 55.4 °F /  13 °C 29.96in /  1014.4hPa SW 5mph /  8km/h 9mph /  14.5km/h 49% 0.00in /  0mm 127 W/m2
17:40 75.6 °F /  24.2 °C 55.6 °F /  13.1 °C 29.96in /  1014.4hPa SW 5mph /  8km/h 7mph /  11.3km/h 50% 0.00in /  0mm 98 W/m2
17:50 75.2 °F /  24 °C 56.4 °F /  13.6 °C 29.96in /  1014.4hPa SW 6mph /  9.7km/h 8mph /  12.9km/h 52% 0.00in /  0mm 80 W/m2
18:00 74.8 °F /  23.8 °C 56.5 °F /  13.6 °C 29.96in /  1014.4hPa SW 3mph /  4.8km/h 8mph /  12.9km/h 53% 0.00in /  0mm 45 W/m2
18:10 74.3 °F /  23.5 °C 57.1 °F /  13.9 °C 29.96in /  1014.4hPa SSW 2mph /  3.2km/h 5mph /  8km/h 55% 0.00in /  0mm 24 W/m2
18:20 73.5 °F /  23.1 °C 57.4 °F /  14.1 °C 29.96in /  1014.4hPa South 3mph /  4.8km/h 5mph /  8km/h 57% 0.00in /  0mm 13 W/m2
18:30 72.9 °F /  22.7 °C 56.7 °F /  13.7 °C 29.96in /  1014.4hPa SSW 2mph /  3.2km/h 6mph /  9.7km/h 57% 0.00in /  0mm 7 W/m2
18:40 72.1 °F /  22.3 °C 56.5 °F /  13.6 °C 29.97in /  1014.8hPa SSW 3mph /  4.8km/h 6mph /  9.7km/h 58% 0.00in /  0mm 0 W/m2
18:50 71.4 °F /  21.9 °C 56.3 °F /  13.5 °C 29.96in /  1014.4hPa SSW 2mph /  3.2km/h 7mph /  11.3km/h 59% 0.00in /  0mm 0 W/m2
19:00 70.9 °F /  21.6 °C 55.8 °F /  13.2 °C 29.96in /  1014.4hPa SW 1mph /  1.6km/h 5mph /  8km/h 59% 0.00in /  0mm 0 W/m2
19:10 70.3 °F /  21.3 °C 55.8 °F /  13.2 °C 29.97in /  1014.8hPa SSW 1mph /  1.6km/h 4mph /  6.4km/h 60% 0.00in /  0mm 0 W/m2
19:20 69.9 °F /  21.1 °C 55.4 °F /  13 °C 29.97in /  1014.8hPa Calm   4mph /  6.4km/h 60% 0.00in /  0mm 0 W/m2
19:30 69.6 °F /  20.9 °C 55.1 °F /  12.8 °C 29.97in /  1014.8hPa ENE 2mph /  3.2km/h 4mph /  6.4km/h 60% 0.00in /  0mm 0 W/m2
19:40 69.4 °F /  20.8 °C 55.8 °F /  13.2 °C 29.97in /  1014.8hPa SE 1mph /  1.6km/h 3mph /  4.8km/h 62% 0.00in /  0mm 0 W/m2
19:50 69 °F /  20.6 °C 55.5 °F /  13.1 °C 29.97in /  1014.8hPa Calm   2mph /  3.2km/h 62% 0.00in /  0mm 0 W/m2
20:00 68.5 °F /  20.3 °C 55.4 °F /  13 °C 29.98in /  1015.1hPa Calm   1mph /  1.6km/h 63% 0.00in /  0mm 0 W/m2
20:10 68.2 °F /  20.1 °C 55.1 °F /  12.8 °C 29.97in /  1014.8hPa Calm   2mph /  3.2km/h 63% 0.00in /  0mm 0 W/m2
20:20 68 °F /  20 °C 55.3 °F /  12.9 °C 29.98in /  1015.1hPa Calm   5mph /  8km/h 64% 0.00in /  0mm 0 W/m2
20:30 67.8 °F /  19.9 °C 55.2 °F /  12.9 °C 29.98in /  1015.1hPa East 3mph /  4.8km/h 7mph /  11.3km/h 64% 0.00in /  0mm 0 W/m2
20:40 67.6 °F /  19.8 °C 55.5 °F /  13.1 °C 29.98in /  1015.1hPa SE 2mph /  3.2km/h 7mph /  11.3km/h 65% 0.00in /  0mm 0 W/m2
20:50 67.6 °F /  19.8 °C 55.5 °F /  13.1 °C 29.98in /  1015.1hPa SE 3mph /  4.8km/h 10mph /  16.1km/h 65% 0.00in /  0mm 0 W/m2
21:00 67.5 °F /  19.7 °C 56.1 °F /  13.4 °C 29.97in /  1014.8hPa ESE 2mph /  3.2km/h 5mph /  8km/h 67% 0.00in /  0mm 0 W/m2
21:10 67.3 °F /  19.6 °C 55.9 °F /  13.3 °C 29.98in /  1015.1hPa SE 2mph /  3.2km/h 5mph /  8km/h 67% 0.00in /  0mm 0 W/m2
21:20 66.7 °F /  19.3 °C 55.4 °F /  13 °C 29.98in /  1015.1hPa East 1mph /  1.6km/h 4mph /  6.4km/h 67% 0.00in /  0mm 0 W/m2
21:30 66.2 °F /  19 °C 55.3 °F /  12.9 °C 29.99in /  1015.5hPa West 3mph /  4.8km/h 6mph /  9.7km/h 68% 0.00in /  0mm 0 W/m2
21:40 64.9 °F /  18.3 °C 57.5 °F /  14.2 °C 30.00in /  1015.8hPa West 6mph /  9.7km/h 9mph /  14.5km/h 77% 0.04in /  1.02mm 0 W/m2
21:50 64 °F /  17.8 °C 58 °F /  14.4 °C 30.00in /  1015.8hPa SE 6mph /  9.7km/h 8mph /  12.9km/h 81% 0.07in /  1.78mm 0 W/m2
22:00 63.1 °F /  17.3 °C 57.2 °F /  14 °C 29.99in /  1015.5hPa SSE 2mph /  3.2km/h 6mph /  9.7km/h 81% 0.01in /  0.25mm 0 W/m2
22:10 62.7 °F /  17.1 °C 58.2 °F /  14.6 °C 29.99in /  1015.5hPa ESE 3mph /  4.8km/h 6mph /  9.7km/h 85% 0.01in /  0.25mm 0 W/m2
22:20 62.2 °F /  16.8 °C 58 °F /  14.4 °C 30.00in /  1015.8hPa South 3mph /  4.8km/h 5mph /  8km/h 86% 0.00in /  0mm 0 W/m2
22:30 61.9 °F /  16.6 °C 58.3 °F /  14.6 °C 30.00in /  1015.8hPa South 3mph /  4.8km/h 5mph /  8km/h 88% 0.00in /  0mm 0 W/m2
22:40 61.5 °F /  16.4 °C 58.2 °F /  14.6 °C 30.00in /  1015.8hPa SSE 1mph /  1.6km/h 5mph /  8km/h 89% 0.00in /  0mm 0 W/m2
22:50 61.5 °F /  16.4 °C 58.6 °F /  14.8 °C 30.00in /  1015.8hPa NE 2mph /  3.2km/h 6mph /  9.7km/h 90% 0.00in /  0mm 0 W/m2
23:00 61.5 °F /  16.4 °C 58.6 °F /  14.8 °C 30.00in /  1015.8hPa SE 2mph /  3.2km/h 6mph /  9.7km/h 90% 0.00in /  0mm 0 W/m2
23:10 61.3 °F /  16.3 °C 58.1 °F /  14.5 °C 30.00in /  1015.8hPa SE 5mph /  8km/h 12mph /  19.3km/h 89% 0.00in /  0mm 0 W/m2
23:20 61.2 °F /  16.2 °C 58.2 °F /  14.6 °C 30.00in /  1015.8hPa East 6mph /  9.7km/h 8mph /  12.9km/h 90% 0.00in /  0mm 0 W/m2
23:30 61.2 °F /  16.2 °C 57.9 °F /  14.4 °C 30.00in /  1015.8hPa SE 3mph /  4.8km/h 11mph /  17.7km/h 89% 0.00in /  0mm 0 W/m2
23:40 61.3 °F /  16.3 °C 58.1 °F /  14.5 °C 30.00in /  1015.8hPa SE 3mph /  4.8km/h 11mph /  17.7km/h 89% 0.00in /  0mm 0 W/m2
23:50 61.3 °F /  16.3 °C 58.1 °F /  14.5 °C 30.00in /  1015.8hPa SE 2mph /  3.2km/h 9mph /  14.5km/h 89% 0.00in /  0mm 0 W/m2
Knjazevac, Serbia
Compliments of Weather Underground - 2 mb